sensor_id;sensor_type;location;lat;lon;timestamp;temperature;humidity
39751;DHT22;37579;51.074;17.004;2023-06-04T00:02:22;26.50;38.00
39751;DHT22;37579;51.074;17.004;2023-06-04T00:04:48;26.50;38.00
39751;DHT22;37579;51.074;17.004;2023-06-04T00:07:13;26.50;38.00
39751;DHT22;37579;51.074;17.004;2023-06-04T00:09:39;26.50;38.00
39751;DHT22;37579;51.074;17.004;2023-06-04T00:12:05;26.50;38.00
39751;DHT22;37579;51.074;17.004;2023-06-04T00:14:31;26.50;38.10
39751;DHT22;37579;51.074;17.004;2023-06-04T00:16:56;26.50;38.10
39751;DHT22;37579;51.074;17.004;2023-06-04T00:19:22;26.50;38.80
39751;DHT22;37579;51.074;17.004;2023-06-04T00:21:48;26.50;38.10
39751;DHT22;37579;51.074;17.004;2023-06-04T00:24:13;26.50;38.10
39751;DHT22;37579;51.074;17.004;2023-06-04T00:26:39;26.40;38.10
39751;DHT22;37579;51.074;17.004;2023-06-04T00:29:05;26.50;38.20
39751;DHT22;37579;51.074;17.004;2023-06-04T00:31:31;26.50;38.10
39751;DHT22;37579;51.074;17.004;2023-06-04T00:33:56;26.50;38.10
39751;DHT22;37579;51.074;17.004;2023-06-04T00:36:22;26.50;38.10
39751;DHT22;37579;51.074;17.004;2023-06-04T00:38:48;26.40;38.30
39751;DHT22;37579;51.074;17.004;2023-06-04T00:41:13;26.40;38.20
39751;DHT22;37579;51.074;17.004;2023-06-04T00:43:39;26.40;38.30
39751;DHT22;37579;51.074;17.004;2023-06-04T00:46:05;26.40;38.20
39751;DHT22;37579;51.074;17.004;2023-06-04T00:48:31;26.40;38.30
39751;DHT22;37579;51.074;17.004;2023-06-04T00:50:57;26.40;38.30
39751;DHT22;37579;51.074;17.004;2023-06-04T00:53:24;26.40;38.30
39751;DHT22;37579;51.074;17.004;2023-06-04T00:55:50;26.40;38.30
39751;DHT22;37579;51.074;17.004;2023-06-04T00:58:16;26.40;38.30
39751;DHT22;37579;51.074;17.004;2023-06-04T01:00:42;26.40;38.30
39751;DHT22;37579;51.074;17.004;2023-06-04T01:03:14;26.40;38.30
39751;DHT22;37579;51.074;17.004;2023-06-04T01:08:35;26.40;38.30
39751;DHT22;37579;51.074;17.004;2023-06-04T01:11:01;26.40;38.40
39751;DHT22;37579;51.074;17.004;2023-06-04T01:13:26;26.40;38.40
39751;DHT22;37579;51.074;17.004;2023-06-04T01:15:52;26.40;38.50
39751;DHT22;37579;51.074;17.004;2023-06-04T01:18:19;26.50;39.20
39751;DHT22;37579;51.074;17.004;2023-06-04T01:20:59;26.40;38.40
39751;DHT22;37579;51.074;17.004;2023-06-04T01:26:01;26.40;38.50
39751;DHT22;37579;51.074;17.004;2023-06-04T01:28:30;26.40;38.60
39751;DHT22;37579;51.074;17.004;2023-06-04T01:30:58;26.40;38.60
39751;DHT22;37579;51.074;17.004;2023-06-04T01:33:26;26.30;38.50
39751;DHT22;37579;51.074;17.004;2023-06-04T01:35:52;26.40;38.50
39751;DHT22;37579;51.074;17.004;2023-06-04T01:38:18;26.30;38.60
39751;DHT22;37579;51.074;17.004;2023-06-04T01:40:44;26.30;38.50
39751;DHT22;37579;51.074;17.004;2023-06-04T01:43:10;26.30;38.60
39751;DHT22;37579;51.074;17.004;2023-06-04T01:45:36;26.30;38.50
39751;DHT22;37579;51.074;17.004;2023-06-04T01:48:02;26.40;38.60
39751;DHT22;37579;51.074;17.004;2023-06-04T01:50:29;26.30;38.70
39751;DHT22;37579;51.074;17.004;2023-06-04T01:52:56;26.30;38.60
39751;DHT22;37579;51.074;17.004;2023-06-04T01:55:21;26.30;38.60
39751;DHT22;37579;51.074;17.004;2023-06-04T01:57:47;26.30;38.70
39751;DHT22;37579;51.074;17.004;2023-06-04T02:00:13;26.30;38.70
39751;DHT22;37579;51.074;17.004;2023-06-04T02:02:41;26.30;38.70
39751;DHT22;37579;51.074;17.004;2023-06-04T02:05:07;26.30;38.80
39751;DHT22;37579;51.074;17.004;2023-06-04T02:07:36;26.30;38.70
39751;DHT22;37579;51.074;17.004;2023-06-04T02:10:05;26.30;38.70
39751;DHT22;37579;51.074;17.004;2023-06-04T02:12:31;26.30;38.80
39751;DHT22;37579;51.074;17.004;2023-06-04T02:14:57;26.30;38.80
39751;DHT22;37579;51.074;17.004;2023-06-04T02:17:22;26.30;38.80
39751;DHT22;37579;51.074;17.004;2023-06-04T02:19:48;26.20;38.70
39751;DHT22;37579;51.074;17.004;2023-06-04T02:22:16;26.20;38.80
39751;DHT22;37579;51.074;17.004;2023-06-04T02:24:42;26.30;38.90
39751;DHT22;37579;51.074;17.004;2023-06-04T02:27:08;26.30;38.90
39751;DHT22;37579;51.074;17.004;2023-06-04T02:29:35;26.20;38.80
39751;DHT22;37579;51.074;17.004;2023-06-04T02:32:01;26.30;38.90
39751;DHT22;37579;51.074;17.004;2023-06-04T02:34:27;26.20;38.90
39751;DHT22;37579;51.074;17.004;2023-06-04T02:36:52;26.30;39.20
39751;DHT22;37579;51.074;17.004;2023-06-04T02:39:19;26.30;39.50
39751;DHT22;37579;51.074;17.004;2023-06-04T02:41:44;26.30;42.10
39751;DHT22;37579;51.074;17.004;2023-06-04T02:44:10;26.30;44.80
39751;DHT22;37579;51.074;17.004;2023-06-04T02:46:36;26.30;49.10
39751;DHT22;37579;51.074;17.004;2023-06-04T02:49:02;26.20;38.20
39751;DHT22;37579;51.074;17.004;2023-06-04T02:51:28;26.20;38.80
39751;DHT22;37579;51.074;17.004;2023-06-04T02:53:54;26.20;38.90
39751;DHT22;37579;51.074;17.004;2023-06-04T02:56:20;26.20;38.90
39751;DHT22;37579;51.074;17.004;2023-06-04T02:58:52;26.20;38.90
39751;DHT22;37579;51.074;17.004;2023-06-04T03:01:19;26.20;38.90
39751;DHT22;37579;51.074;17.004;2023-06-04T03:03:46;26.20;38.90
39751;DHT22;37579;51.074;17.004;2023-06-04T03:06:12;26.20;38.80
39751;DHT22;37579;51.074;17.004;2023-06-04T03:08:40;26.20;39.00
39751;DHT22;37579;51.074;17.004;2023-06-04T03:11:05;26.20;39.10
39751;DHT22;37579;51.074;17.004;2023-06-04T03:13:31;26.20;39.00
39751;DHT22;37579;51.074;17.004;2023-06-04T03:15:57;26.20;39.10
39751;DHT22;37579;51.074;17.004;2023-06-04T03:18:26;26.20;39.00
39751;DHT22;37579;51.074;17.004;2023-06-04T03:20:52;26.20;38.90
39751;DHT22;37579;51.074;17.004;2023-06-04T03:23:19;26.20;38.90
39751;DHT22;37579;51.074;17.004;2023-06-04T03:25:44;26.20;38.90
39751;DHT22;37579;51.074;17.004;2023-06-04T03:28:10;26.20;38.90
39751;DHT22;37579;51.074;17.004;2023-06-04T03:30:36;26.20;38.90
39751;DHT22;37579;51.074;17.004;2023-06-04T03:33:04;26.20;38.80
39751;DHT22;37579;51.074;17.004;2023-06-04T03:35:30;26.30;38.90
39751;DHT22;37579;51.074;17.004;2023-06-04T03:37:55;26.30;38.90
39751;DHT22;37579;51.074;17.004;2023-06-04T03:40:21;26.30;38.90
39751;DHT22;37579;51.074;17.004;2023-06-04T03:42:48;26.30;39.00
39751;DHT22;37579;51.074;17.004;2023-06-04T03:45:15;26.30;38.90
39751;DHT22;37579;51.074;17.004;2023-06-04T03:47:41;26.30;39.00
39751;DHT22;37579;51.074;17.004;2023-06-04T03:50:08;26.40;39.00
39751;DHT22;37579;51.074;17.004;2023-06-04T03:52:35;26.40;39.20
39751;DHT22;37579;51.074;17.004;2023-06-04T03:55:00;26.40;39.00
39751;DHT22;37579;51.074;17.004;2023-06-04T03:57:28;26.50;39.10
39751;DHT22;37579;51.074;17.004;2023-06-04T03:59:53;26.50;39.10
39751;DHT22;37579;51.074;17.004;2023-06-04T04:02:19;26.50;39.00
39751;DHT22;37579;51.074;17.004;2023-06-04T04:04:45;26.50;38.90
39751;DHT22;37579;51.074;17.004;2023-06-04T04:07:11;26.50;39.10
39751;DHT22;37579;51.074;17.004;2023-06-04T04:09:36;26.50;39.10
39751;DHT22;37579;51.074;17.004;2023-06-04T04:12:03;26.50;39.10
39751;DHT22;37579;51.074;17.004;2023-06-04T04:14:29;26.50;39.80
39751;DHT22;37579;51.074;17.004;2023-06-04T04:16:55;26.60;39.10
39751;DHT22;37579;51.074;17.004;2023-06-04T04:19:21;26.60;39.20
39751;DHT22;37579;51.074;17.004;2023-06-04T04:21:47;26.60;39.20
39751;DHT22;37579;51.074;17.004;2023-06-04T04:24:24;26.60;39.10
39751;DHT22;37579;51.074;17.004;2023-06-04T04:26:51;26.70;39.00
39751;DHT22;37579;51.074;17.004;2023-06-04T04:29:23;26.70;39.10
39751;DHT22;37579;51.074;17.004;2023-06-04T04:31:51;26.70;39.00
39751;DHT22;37579;51.074;17.004;2023-06-04T04:34:19;26.70;39.10
39751;DHT22;37579;51.074;17.004;2023-06-04T04:36:47;26.80;38.90
39751;DHT22;37579;51.074;17.004;2023-06-04T04:39:23;26.80;39.00
39751;DHT22;37579;51.074;17.004;2023-06-04T04:41:51;26.80;38.80
39751;DHT22;37579;51.074;17.004;2023-06-04T04:44:17;26.80;38.80
39751;DHT22;37579;51.074;17.004;2023-06-04T04:46:43;26.80;38.90
39751;DHT22;37579;51.074;17.004;2023-06-04T04:49:09;26.80;38.90
39751;DHT22;37579;51.074;17.004;2023-06-04T04:51:35;26.80;38.80
39751;DHT22;37579;51.074;17.004;2023-06-04T04:54:01;26.90;38.80
39751;DHT22;37579;51.074;17.004;2023-06-04T04:56:28;26.90;38.80
39751;DHT22;37579;51.074;17.004;2023-06-04T04:58:54;26.90;38.80
39751;DHT22;37579;51.074;17.004;2023-06-04T05:01:21;26.90;38.80
39751;DHT22;37579;51.074;17.004;2023-06-04T05:06:15;27.00;38.70
39751;DHT22;37579;51.074;17.004;2023-06-04T05:08:41;27.00;38.70
39751;DHT22;37579;51.074;17.004;2023-06-04T05:11:08;27.00;38.70
39751;DHT22;37579;51.074;17.004;2023-06-04T05:13:35;27.00;38.60
39751;DHT22;37579;51.074;17.004;2023-06-04T05:16:03;27.10;38.70
39751;DHT22;37579;51.074;17.004;2023-06-04T05:18:33;27.10;38.60
39751;DHT22;37579;51.074;17.004;2023-06-04T05:21:01;27.10;38.60
39751;DHT22;37579;51.074;17.004;2023-06-04T05:23:30;27.20;38.50
39751;DHT22;37579;51.074;17.004;2023-06-04T05:25:58;27.30;38.50
39751;DHT22;37579;51.074;17.004;2023-06-04T05:28:25;27.30;38.40
39751;DHT22;37579;51.074;17.004;2023-06-04T05:30:51;27.30;38.40
39751;DHT22;37579;51.074;17.004;2023-06-04T05:35:48;27.40;37.70
39751;DHT22;37579;51.074;17.004;2023-06-04T05:38:14;27.50;37.50
39751;DHT22;37579;51.074;17.004;2023-06-04T05:40:43;27.60;37.30
39751;DHT22;37579;51.074;17.004;2023-06-04T05:43:09;27.60;37.90
39751;DHT22;37579;51.074;17.004;2023-06-04T05:45:35;27.90;36.80
39751;DHT22;37579;51.074;17.004;2023-06-04T05:48:00;28.10;36.90
39751;DHT22;37579;51.074;17.004;2023-06-04T05:50:27;29.40;34.90
39751;DHT22;37579;51.074;17.004;2023-06-04T05:52:53;30.50;33.60
39751;DHT22;37579;51.074;17.004;2023-06-04T05:55:19;31.20;32.20
39751;DHT22;37579;51.074;17.004;2023-06-04T05:57:45;31.50;32.40
39751;DHT22;37579;51.074;17.004;2023-06-04T06:00:11;31.80;32.00
39751;DHT22;37579;51.074;17.004;2023-06-04T06:02:46;32.00;31.70
39751;DHT22;37579;51.074;17.004;2023-06-04T06:05:26;32.20;31.40
39751;DHT22;37579;51.074;17.004;2023-06-04T06:07:52;32.30;31.30
39751;DHT22;37579;51.074;17.004;2023-06-04T06:10:18;32.50;31.20
39751;DHT22;37579;51.074;17.004;2023-06-04T06:12:43;32.50;31.10
39751;DHT22;37579;51.074;17.004;2023-06-04T06:15:09;32.70;31.20
39751;DHT22;37579;51.074;17.004;2023-06-04T06:17:37;32.70;31.30
39751;DHT22;37579;51.074;17.004;2023-06-04T06:22:33;32.80;30.90
39751;DHT22;37579;51.074;17.004;2023-06-04T06:24:59;32.90;31.40
39751;DHT22;37579;51.074;17.004;2023-06-04T06:27:25;32.90;31.50
39751;DHT22;37579;51.074;17.004;2023-06-04T06:29:51;32.90;31.50
39751;DHT22;37579;51.074;17.004;2023-06-04T06:32:17;32.90;31.60
39751;DHT22;37579;51.074;17.004;2023-06-04T06:34:42;32.90;31.20
39751;DHT22;37579;51.074;17.004;2023-06-04T06:37:08;32.70;31.70
39751;DHT22;37579;51.074;17.004;2023-06-04T06:39:33;32.60;32.30
39751;DHT22;37579;51.074;17.004;2023-06-04T06:41:59;32.20;32.90
39751;DHT22;37579;51.074;17.004;2023-06-04T06:44:30;31.30;34.00
39751;DHT22;37579;51.074;17.004;2023-06-04T06:46:56;30.10;36.00
39751;DHT22;37579;51.074;17.004;2023-06-04T06:49:22;29.50;36.90
39751;DHT22;37579;51.074;17.004;2023-06-04T06:51:47;29.00;37.50
39751;DHT22;37579;51.074;17.004;2023-06-04T06:54:16;28.80;38.20
39751;DHT22;37579;51.074;17.004;2023-06-04T06:56:42;28.60;38.60
39751;DHT22;37579;51.074;17.004;2023-06-04T06:59:07;28.40;38.70
39751;DHT22;37579;51.074;17.004;2023-06-04T07:01:33;28.40;39.00
39751;DHT22;37579;51.074;17.004;2023-06-04T07:03:59;28.40;39.30
39751;DHT22;37579;51.074;17.004;2023-06-04T07:06:24;28.20;38.90
39751;DHT22;37579;51.074;17.004;2023-06-04T07:08:50;28.20;38.90
39751;DHT22;37579;51.074;17.004;2023-06-04T07:11:16;28.20;38.90
39751;DHT22;37579;51.074;17.004;2023-06-04T07:13:42;28.20;38.20
39751;DHT22;37579;51.074;17.004;2023-06-04T07:16:07;28.10;37.60
39751;DHT22;37579;51.074;17.004;2023-06-04T07:18:33;28.00;37.40
39751;DHT22;37579;51.074;17.004;2023-06-04T07:20:59;27.90;37.50
39751;DHT22;37579;51.074;17.004;2023-06-04T07:23:24;27.90;37.60
39751;DHT22;37579;51.074;17.004;2023-06-04T07:25:50;27.90;38.00
39751;DHT22;37579;51.074;17.004;2023-06-04T07:28:16;27.80;37.80
39751;DHT22;37579;51.074;17.004;2023-06-04T07:30:42;27.80;37.70
39751;DHT22;37579;51.074;17.004;2023-06-04T07:33:08;27.80;37.20
39751;DHT22;37579;51.074;17.004;2023-06-04T07:35:33;27.80;37.20
39751;DHT22;37579;51.074;17.004;2023-06-04T07:37:59;27.80;36.90
39751;DHT22;37579;51.074;17.004;2023-06-04T07:40:25;27.60;36.30
39751;DHT22;37579;51.074;17.004;2023-06-04T07:42:51;27.60;35.90
39751;DHT22;37579;51.074;17.004;2023-06-04T07:45:16;27.50;35.20
39751;DHT22;37579;51.074;17.004;2023-06-04T07:47:42;27.30;35.00
39751;DHT22;37579;51.074;17.004;2023-06-04T07:50:08;27.30;35.10
39751;DHT22;37579;51.074;17.004;2023-06-04T07:52:34;27.40;35.00
39751;DHT22;37579;51.074;17.004;2023-06-04T07:55:00;27.30;35.10
39751;DHT22;37579;51.074;17.004;2023-06-04T07:57:26;27.30;35.00
39751;DHT22;37579;51.074;17.004;2023-06-04T07:59:51;27.30;35.00
39751;DHT22;37579;51.074;17.004;2023-06-04T08:02:17;27.30;35.30
39751;DHT22;37579;51.074;17.004;2023-06-04T08:04:43;27.50;35.50
39751;DHT22;37579;51.074;17.004;2023-06-04T08:07:09;27.40;35.00
39751;DHT22;37579;51.074;17.004;2023-06-04T08:09:35;27.40;35.30
39751;DHT22;37579;51.074;17.004;2023-06-04T08:12:00;27.40;35.20
39751;DHT22;37579;51.074;17.004;2023-06-04T08:14:26;27.40;35.00
39751;DHT22;37579;51.074;17.004;2023-06-04T08:16:53;27.30;35.00
39751;DHT22;37579;51.074;17.004;2023-06-04T08:19:18;27.40;35.60
39751;DHT22;37579;51.074;17.004;2023-06-04T08:21:44;27.50;35.70
39751;DHT22;37579;51.074;17.004;2023-06-04T08:24:11;27.60;34.90
39751;DHT22;37579;51.074;17.004;2023-06-04T08:26:36;27.50;34.90
39751;DHT22;37579;51.074;17.004;2023-06-04T08:29:02;27.50;34.70
39751;DHT22;37579;51.074;17.004;2023-06-04T08:31:29;27.40;34.50
39751;DHT22;37579;51.074;17.004;2023-06-04T08:33:55;27.40;32.90
39751;DHT22;37579;51.074;17.004;2023-06-04T08:36:20;27.40;33.70
39751;DHT22;37579;51.074;17.004;2023-06-04T08:38:46;27.30;33.70
39751;DHT22;37579;51.074;17.004;2023-06-04T08:41:18;27.20;33.50
39751;DHT22;37579;51.074;17.004;2023-06-04T08:43:45;27.10;33.10
39751;DHT22;37579;51.074;17.004;2023-06-04T08:46:13;27.10;33.10
39751;DHT22;37579;51.074;17.004;2023-06-04T08:48:40;27.00;32.10
39751;DHT22;37579;51.074;17.004;2023-06-04T08:51:06;27.00;32.20
39751;DHT22;37579;51.074;17.004;2023-06-04T08:53:34;27.00;32.40
39751;DHT22;37579;51.074;17.004;2023-06-04T08:56:00;27.00;32.60
39751;DHT22;37579;51.074;17.004;2023-06-04T08:58:29;26.90;32.10
39751;DHT22;37579;51.074;17.004;2023-06-04T09:00:56;27.00;32.00
39751;DHT22;37579;51.074;17.004;2023-06-04T09:03:22;26.90;32.00
39751;DHT22;37579;51.074;17.004;2023-06-04T09:05:49;26.90;31.90
39751;DHT22;37579;51.074;17.004;2023-06-04T09:08:16;26.90;31.60
39751;DHT22;37579;51.074;17.004;2023-06-04T09:10:43;26.90;32.60
39751;DHT22;37579;51.074;17.004;2023-06-04T09:13:10;26.90;32.50
39751;DHT22;37579;51.074;17.004;2023-06-04T09:15:36;26.90;32.40
39751;DHT22;37579;51.074;17.004;2023-06-04T09:18:02;27.00;32.50
39751;DHT22;37579;51.074;17.004;2023-06-04T09:20:27;26.90;32.40
39751;DHT22;37579;51.074;17.004;2023-06-04T09:22:53;26.90;32.60
39751;DHT22;37579;51.074;17.004;2023-06-04T09:25:20;26.80;32.30
39751;DHT22;37579;51.074;17.004;2023-06-04T09:27:45;26.80;32.30
39751;DHT22;37579;51.074;17.004;2023-06-04T09:30:11;26.80;32.60
39751;DHT22;37579;51.074;17.004;2023-06-04T09:32:37;26.80;32.70
39751;DHT22;37579;51.074;17.004;2023-06-04T09:35:12;26.70;32.60
39751;DHT22;37579;51.074;17.004;2023-06-04T09:37:42;26.70;32.30
39751;DHT22;37579;51.074;17.004;2023-06-04T09:40:08;26.60;32.40
39751;DHT22;37579;51.074;17.004;2023-06-04T09:42:44;26.60;32.40
39751;DHT22;37579;51.074;17.004;2023-06-04T09:45:10;26.60;32.10
39751;DHT22;37579;51.074;17.004;2023-06-04T09:47:43;26.60;31.80
39751;DHT22;37579;51.074;17.004;2023-06-04T09:50:12;26.50;31.60
39751;DHT22;37579;51.074;17.004;2023-06-04T09:52:37;26.60;31.80
39751;DHT22;37579;51.074;17.004;2023-06-04T09:55:15;26.70;32.10
39751;DHT22;37579;51.074;17.004;2023-06-04T09:57:44;26.70;32.30
39751;DHT22;37579;51.074;17.004;2023-06-04T10:00:11;26.80;33.00
39751;DHT22;37579;51.074;17.004;2023-06-04T10:02:37;26.70;32.30
39751;DHT22;37579;51.074;17.004;2023-06-04T10:05:03;26.80;32.80
39751;DHT22;37579;51.074;17.004;2023-06-04T10:07:30;26.80;33.10
39751;DHT22;37579;51.074;17.004;2023-06-04T10:09:58;26.80;33.80
39751;DHT22;37579;51.074;17.004;2023-06-04T10:12:29;26.70;34.10
39751;DHT22;37579;51.074;17.004;2023-06-04T10:14:56;26.70;33.90
39751;DHT22;37579;51.074;17.004;2023-06-04T10:17:24;26.70;34.00
39751;DHT22;37579;51.074;17.004;2023-06-04T10:19:52;26.70;34.00
39751;DHT22;37579;51.074;17.004;2023-06-04T10:22:22;26.70;33.40
39751;DHT22;37579;51.074;17.004;2023-06-04T10:24:48;26.70;33.30
39751;DHT22;37579;51.074;17.004;2023-06-04T10:27:14;26.70;33.00
39751;DHT22;37579;51.074;17.004;2023-06-04T10:29:40;26.70;33.10
39751;DHT22;37579;51.074;17.004;2023-06-04T10:32:05;26.60;32.90
39751;DHT22;37579;51.074;17.004;2023-06-04T10:34:31;26.70;33.20
39751;DHT22;37579;51.074;17.004;2023-06-04T10:36:57;26.80;33.20
39751;DHT22;37579;51.074;17.004;2023-06-04T10:39:27;26.60;29.90
39751;DHT22;37579;51.074;17.004;2023-06-04T10:41:57;26.50;29.20
39751;DHT22;37579;51.074;17.004;2023-06-04T10:44:23;26.50;29.10
39751;DHT22;37579;51.074;17.004;2023-06-04T10:46:49;26.20;28.60
39751;DHT22;37579;51.074;17.004;2023-06-04T10:49:25;26.00;28.50
39751;DHT22;37579;51.074;17.004;2023-06-04T10:51:51;26.10;29.00
39751;DHT22;37579;51.074;17.004;2023-06-04T10:54:22;26.10;28.70
39751;DHT22;37579;51.074;17.004;2023-06-04T10:56:47;25.90;28.90
39751;DHT22;37579;51.074;17.004;2023-06-04T10:59:14;26.20;29.50
39751;DHT22;37579;51.074;17.004;2023-06-04T11:01:40;26.30;30.20
39751;DHT22;37579;51.074;17.004;2023-06-04T11:04:05;26.40;30.20
39751;DHT22;37579;51.074;17.004;2023-06-04T11:06:31;26.40;30.40
39751;DHT22;37579;51.074;17.004;2023-06-04T11:09:02;26.40;30.30
39751;DHT22;37579;51.074;17.004;2023-06-04T11:11:28;26.50;30.40
39751;DHT22;37579;51.074;17.004;2023-06-04T11:13:53;26.50;30.60
39751;DHT22;37579;51.074;17.004;2023-06-04T11:16:20;26.50;30.80
39751;DHT22;37579;51.074;17.004;2023-06-04T11:18:55;26.60;30.90
39751;DHT22;37579;51.074;17.004;2023-06-04T11:21:22;26.60;31.00
39751;DHT22;37579;51.074;17.004;2023-06-04T11:23:47;26.70;31.30
39751;DHT22;37579;51.074;17.004;2023-06-04T11:26:13;26.70;31.50
39751;DHT22;37579;51.074;17.004;2023-06-04T11:28:39;26.80;31.20
39751;DHT22;37579;51.074;17.004;2023-06-04T11:31:05;26.70;31.40
39751;DHT22;37579;51.074;17.004;2023-06-04T11:36:09;26.80;31.40
39751;DHT22;37579;51.074;17.004;2023-06-04T11:38:35;26.70;31.30
39751;DHT22;37579;51.074;17.004;2023-06-04T11:41:04;26.70;31.50
39751;DHT22;37579;51.074;17.004;2023-06-04T11:43:31;26.80;31.80
39751;DHT22;37579;51.074;17.004;2023-06-04T11:45:57;26.80;31.20
39751;DHT22;37579;51.074;17.004;2023-06-04T11:48:23;26.70;31.10
39751;DHT22;37579;51.074;17.004;2023-06-04T11:50:49;26.70;31.00
39751;DHT22;37579;51.074;17.004;2023-06-04T11:53:15;26.70;31.50
39751;DHT22;37579;51.074;17.004;2023-06-04T11:55:40;26.60;30.00
39751;DHT22;37579;51.074;17.004;2023-06-04T11:58:06;26.40;29.00
39751;DHT22;37579;51.074;17.004;2023-06-04T12:00:32;26.30;28.10
39751;DHT22;37579;51.074;17.004;2023-06-04T12:02:58;26.20;28.30
39751;DHT22;37579;51.074;17.004;2023-06-04T12:05:31;26.10;28.40
39751;DHT22;37579;51.074;17.004;2023-06-04T12:08:04;25.90;28.60
39751;DHT22;37579;51.074;17.004;2023-06-04T12:10:36;25.80;28.00
39751;DHT22;37579;51.074;17.004;2023-06-04T12:13:01;25.90;28.20
39751;DHT22;37579;51.074;17.004;2023-06-04T12:15:27;26.00;28.40
39751;DHT22;37579;51.074;17.004;2023-06-04T12:17:53;26.00;28.50
39751;DHT22;37579;51.074;17.004;2023-06-04T12:20:35;26.10;28.90
39751;DHT22;37579;51.074;17.004;2023-06-04T12:23:05;26.20;29.10
39751;DHT22;37579;51.074;17.004;2023-06-04T12:25:32;26.20;29.00
39751;DHT22;37579;51.074;17.004;2023-06-04T12:27:57;26.10;28.50
39751;DHT22;37579;51.074;17.004;2023-06-04T12:30:23;26.00;28.60
39751;DHT22;37579;51.074;17.004;2023-06-04T12:32:49;26.10;28.10
39751;DHT22;37579;51.074;17.004;2023-06-04T12:35:16;26.10;28.30
39751;DHT22;37579;51.074;17.004;2023-06-04T12:37:41;26.20;28.70
39751;DHT22;37579;51.074;17.004;2023-06-04T12:40:07;26.20;28.50
39751;DHT22;37579;51.074;17.004;2023-06-04T12:42:34;26.00;28.20
39751;DHT22;37579;51.074;17.004;2023-06-04T12:44:59;26.10;28.80
39751;DHT22;37579;51.074;17.004;2023-06-04T12:47:25;26.00;28.40
39751;DHT22;37579;51.074;17.004;2023-06-04T12:49:51;26.00;28.60
39751;DHT22;37579;51.074;17.004;2023-06-04T12:52:17;25.80;28.40
39751;DHT22;37579;51.074;17.004;2023-06-04T12:54:43;25.80;28.80
39751;DHT22;37579;51.074;17.004;2023-06-04T12:57:09;25.90;28.70
39751;DHT22;37579;51.074;17.004;2023-06-04T12:59:34;25.80;28.50
39751;DHT22;37579;51.074;17.004;2023-06-04T13:02:00;25.90;28.70
39751;DHT22;37579;51.074;17.004;2023-06-04T13:04:26;26.10;28.80
39751;DHT22;37579;51.074;17.004;2023-06-04T13:06:52;26.20;29.10
39751;DHT22;37579;51.074;17.004;2023-06-04T13:09:20;26.30;29.40
39751;DHT22;37579;51.074;17.004;2023-06-04T13:11:48;26.30;29.40
39751;DHT22;37579;51.074;17.004;2023-06-04T13:14:13;26.30;29.40
39751;DHT22;37579;51.074;17.004;2023-06-04T13:16:39;26.40;29.40
39751;DHT22;37579;51.074;17.004;2023-06-04T13:19:06;26.40;29.50
39751;DHT22;37579;51.074;17.004;2023-06-04T13:21:32;26.40;29.70
39751;DHT22;37579;51.074;17.004;2023-06-04T13:23:58;26.40;29.80
39751;DHT22;37579;51.074;17.004;2023-06-04T13:26:23;26.50;29.80
39751;DHT22;37579;51.074;17.004;2023-06-04T13:28:49;26.50;30.00
39751;DHT22;37579;51.074;17.004;2023-06-04T13:31:15;26.50;30.00
39751;DHT22;37579;51.074;17.004;2023-06-04T13:33:41;26.40;30.00
39751;DHT22;37579;51.074;17.004;2023-06-04T13:36:06;26.40;30.00
39751;DHT22;37579;51.074;17.004;2023-06-04T13:38:32;26.50;30.90
39751;DHT22;37579;51.074;17.004;2023-06-04T13:40:58;26.50;30.10
39751;DHT22;37579;51.074;17.004;2023-06-04T13:43:24;26.50;30.20
39751;DHT22;37579;51.074;17.004;2023-06-04T13:45:49;26.50;30.30
39751;DHT22;37579;51.074;17.004;2023-06-04T13:48:15;26.40;29.60
39751;DHT22;37579;51.074;17.004;2023-06-04T13:50:41;26.40;29.60
39751;DHT22;37579;51.074;17.004;2023-06-04T13:53:10;26.40;29.80
39751;DHT22;37579;51.074;17.004;2023-06-04T13:55:36;26.50;30.00
39751;DHT22;37579;51.074;17.004;2023-06-04T13:58:02;26.60;30.00
39751;DHT22;37579;51.074;17.004;2023-06-04T14:00:27;26.70;30.10
39751;DHT22;37579;51.074;17.004;2023-06-04T14:02:55;26.70;30.40
39751;DHT22;37579;51.074;17.004;2023-06-04T14:05:21;26.70;30.30
39751;DHT22;37579;51.074;17.004;2023-06-04T14:07:47;26.70;30.40
39751;DHT22;37579;51.074;17.004;2023-06-04T14:10:13;26.70;30.50
39751;DHT22;37579;51.074;17.004;2023-06-04T14:12:39;26.70;30.30
39751;DHT22;37579;51.074;17.004;2023-06-04T14:15:06;26.70;30.30
39751;DHT22;37579;51.074;17.004;2023-06-04T14:17:32;26.70;30.50
39751;DHT22;37579;51.074;17.004;2023-06-04T14:19:59;26.70;30.20
39751;DHT22;37579;51.074;17.004;2023-06-04T14:22:25;26.80;30.50
39751;DHT22;37579;51.074;17.004;2023-06-04T14:24:51;26.80;30.00
39751;DHT22;37579;51.074;17.004;2023-06-04T14:27:16;26.80;30.00
39751;DHT22;37579;51.074;17.004;2023-06-04T14:29:42;26.80;30.20
39751;DHT22;37579;51.074;17.004;2023-06-04T14:32:08;26.80;30.00
39751;DHT22;37579;51.074;17.004;2023-06-04T14:34:33;26.80;30.50
39751;DHT22;37579;51.074;17.004;2023-06-04T14:36:59;26.90;30.70
39751;DHT22;37579;51.074;17.004;2023-06-04T14:39:26;26.90;30.70
39751;DHT22;37579;51.074;17.004;2023-06-04T14:41:51;26.90;30.60
39751;DHT22;37579;51.074;17.004;2023-06-04T14:44:18;26.90;31.20
39751;DHT22;37579;51.074;17.004;2023-06-04T14:46:43;27.00;30.90
39751;DHT22;37579;51.074;17.004;2023-06-04T14:49:09;26.90;30.00
39751;DHT22;37579;51.074;17.004;2023-06-04T14:51:35;26.90;29.90
39751;DHT22;37579;51.074;17.004;2023-06-04T14:54:01;26.90;29.60
39751;DHT22;37579;51.074;17.004;2023-06-04T14:56:27;26.90;29.90
39751;DHT22;37579;51.074;17.004;2023-06-04T14:58:54;26.70;28.50
39751;DHT22;37579;51.074;17.004;2023-06-04T15:01:19;26.70;28.00
39751;DHT22;37579;51.074;17.004;2023-06-04T15:03:48;26.70;28.00
39751;DHT22;37579;51.074;17.004;2023-06-04T15:06:13;26.60;28.00
39751;DHT22;37579;51.074;17.004;2023-06-04T15:08:39;26.50;27.60
39751;DHT22;37579;51.074;17.004;2023-06-04T15:11:05;26.40;27.60
39751;DHT22;37579;51.074;17.004;2023-06-04T15:13:30;26.50;28.00
39751;DHT22;37579;51.074;17.004;2023-06-04T15:15:56;26.70;28.30
39751;DHT22;37579;51.074;17.004;2023-06-04T15:18:22;26.70;28.20
39751;DHT22;37579;51.074;17.004;2023-06-04T15:20:47;26.80;28.40
39751;DHT22;37579;51.074;17.004;2023-06-04T15:23:13;26.80;28.60
39751;DHT22;37579;51.074;17.004;2023-06-04T15:25:39;26.90;28.90
39751;DHT22;37579;51.074;17.004;2023-06-04T15:28:05;26.90;29.10